Time;durP1;ratioP1;P1;durP2;ratioP2;P2;SDS_P1;SDS_P2;PMS_P1;PMS_P2;Temp;Humidity;BMP_temperature;BMP_pressure;BME280_temperature;BME280_humidity;BME280_pressure;Samples;Min_cycle;Max_cycle;Signal;HPM_P1;HPM_P2
2022/06/28 00:02:38;;;;;;;3.33;3.03;;;20.70;99.90;;;;;;5074420;28;20390;-81
2022/06/28 00:05:23;;;;;;;2.90;2.70;;;20.60;99.90;;;;;;5042722;28;20393;-80
2022/06/28 00:08:07;;;;;;;5.33;2.87;;;20.60;99.90;;;;;;5053903;28;20382;-81
2022/06/28 00:10:52;;;;;;;4.07;3.77;;;20.50;99.90;;;;;;5071965;28;20397;-80
2022/06/28 00:13:36;;;;;;;3.10;2.90;;;20.50;99.90;;;;;;5057753;28;20444;-80
2022/06/28 00:16:21;;;;;;;2.90;2.70;;;20.40;99.90;;;;;;5072923;28;20414;-82
2022/06/28 00:19:06;;;;;;;3.40;3.20;;;20.50;99.90;;;;;;5072678;28;20394;-82
2022/06/28 00:21:50;;;;;;;3.80;3.50;;;20.50;99.90;;;;;;5072792;28;20402;-81
2022/06/28 00:24:35;;;;;;;2.90;2.50;;;20.50;99.90;;;;;;5073002;28;20398;-81
2022/06/28 00:27:20;;;;;;;3.40;3.20;;;20.60;99.90;;;;;;5073176;28;20385;-81
2022/06/28 00:30:06;;;;;;;4.03;2.93;;;20.60;99.90;;;;;;5073528;28;20820;-82
2022/06/28 00:32:50;;;;;;;2.93;2.73;;;20.60;99.90;;;;;;5058011;28;20414;-82
2022/06/28 00:35:35;;;;;;;3.77;3.47;;;20.50;99.90;;;;;;5072675;28;20421;-80
2022/06/28 00:38:20;;;;;;;3.77;3.10;;;20.50;99.90;;;;;;5073335;28;20378;-82
2022/06/28 00:41:05;;;;;;;4.37;3.03;;;20.30;99.90;;;;;;5071544;28;20409;-80
2022/06/28 00:43:49;;;;;;;3.13;2.93;;;20.30;99.90;;;;;;5072515;28;20385;-81
2022/06/28 00:46:34;;;;;;;3.17;2.87;;;20.40;99.90;;;;;;5057608;28;20390;-81
2022/06/28 00:49:20;;;;;;;3.67;3.37;;;20.40;99.90;;;;;;5072830;28;20390;-82
2022/06/28 00:52:04;;;;;;;3.33;3.03;;;20.40;99.90;;;;;;5072625;28;20444;-82
2022/06/28 00:54:49;;;;;;;3.43;3.20;;;20.30;99.90;;;;;;5072771;28;20505;-82
2022/06/28 00:57:34;;;;;;;2.90;2.70;;;20.30;99.90;;;;;;5057772;28;20386;-82
2022/06/28 01:00:20;;;;;;;2.80;2.60;;;20.30;99.90;;;;;;5042798;28;20449;-82
2022/06/28 01:03:05;;;;;;;3.63;3.33;;;20.20;99.90;;;;;;5072364;28;20417;-82
2022/06/28 01:05:51;;;;;;;3.53;3.30;;;20.20;99.90;;;;;;5072510;28;20395;-82
2022/06/28 01:08:36;;;;;;;3.87;3.57;;;20.10;99.90;;;;;;5057195;28;20401;-81
2022/06/28 01:11:21;;;;;;;4.40;2.83;;;20.00;99.90;;;;;;5072852;28;20397;-82
2022/06/28 01:14:07;;;;;;;3.20;2.90;;;20.00;99.90;;;;;;5071602;28;20472;-81
2022/06/28 01:16:52;;;;;;;3.47;3.27;;;20.00;99.90;;;;;;5072366;28;20378;-82
2022/06/28 01:19:38;;;;;;;4.20;3.73;;;20.00;99.90;;;;;;5043415;28;20414;-82
2022/06/28 01:22:23;;;;;;;3.70;3.40;;;19.60;99.90;;;;;;5055677;28;20517;-81
2022/06/28 01:25:09;;;;;;;3.57;3.33;;;19.20;99.90;;;;;;5068894;28;20444;-80
2022/06/28 01:27:55;;;;;;;3.10;2.90;;;19.40;99.90;;;;;;5069789;28;20500;-79
2022/06/28 01:30:41;;;;;;;3.23;2.90;;;19.10;99.90;;;;;;5068559;28;20390;-80
2022/06/28 01:33:25;;;;;;;3.63;3.20;;;19.30;99.90;;;;;;5068238;28;20449;-80
2022/06/28 01:36:11;;;;;;;3.17;2.93;;;19.40;99.90;;;;;;5069297;28;20402;-80
2022/06/28 01:38:56;;;;;;;3.80;3.40;;;19.50;99.90;;;;;;5054404;28;20382;-79
2022/06/28 01:41:43;;;;;;;3.73;3.30;;;19.70;99.90;;;;;;5069329;28;20409;-81
2022/06/28 01:44:29;;;;;;;4.03;3.63;;;19.90;99.90;;;;;;5054190;28;20394;-80
2022/06/28 01:47:15;;;;;;;7.33;5.20;;;20.00;99.90;;;;;;5069058;28;20456;-80
2022/06/28 01:50:02;;;;;;;3.80;3.50;;;20.10;99.90;;;;;;5053522;28;20505;-79
2022/06/28 01:52:47;;;;;;;4.70;4.30;;;19.70;99.90;;;;;;5054171;28;20401;-81
2022/06/28 01:55:32;;;;;;;4.90;3.20;;;19.60;99.90;;;;;;5069645;28;20417;-82
2022/06/28 01:58:17;;;;;;;6.97;3.70;;;19.80;99.90;;;;;;5056838;28;20458;-81
2022/06/28 02:01:02;;;;;;;4.20;3.80;;;19.80;99.90;;;;;;5070586;28;20512;-81
2022/06/28 02:03:49;;;;;;;4.03;3.43;;;19.70;99.90;;;;;;5070722;28;20401;-82
2022/06/28 02:06:33;;;;;;;3.80;3.50;;;18.90;99.90;;;;;;5070484;28;20421;-82
2022/06/28 02:09:18;;;;;;;4.33;3.90;;;19.10;99.90;;;;;;5055454;28;20441;-82
2022/06/28 02:12:04;;;;;;;3.90;3.60;;;19.40;99.90;;;;;;5074365;28;20417;-81
2022/06/28 02:14:48;;;;;;;9.60;4.33;;;19.20;99.90;;;;;;5059337;28;20441;-81
2022/06/28 02:17:33;;;;;;;4.00;3.70;;;19.10;99.90;;;;;;5074141;28;20382;-81
2022/06/28 02:20:18;;;;;;;4.47;3.87;;;19.10;99.90;;;;;;5074254;28;20390;-81
2022/06/28 02:23:03;;;;;;;5.40;3.83;;;19.10;99.90;;;;;;5059649;28;20389;-81
2022/06/28 02:25:48;;;;;;;6.00;3.30;;;18.90;99.90;;;;;;5074723;28;20386;-81
2022/06/28 02:28:33;;;;;;;4.93;3.80;;;19.20;99.90;;;;;;5058899;28;20425;-81
2022/06/28 02:31:18;;;;;;;4.43;4.03;;;19.30;99.90;;;;;;5074226;28;20390;-80
2022/06/28 02:34:04;;;;;;;3.60;3.37;;;19.20;99.90;;;;;;5059066;28;20465;-81
2022/06/28 02:42:45;;;;;;;4.07;3.67;;;18.70;99.90;;;;;;5061332;28;20489;-82
2022/06/28 02:45:32;;;;;;;5.37;4.67;;;18.50;99.90;;;;;;5058855;28;20417;-81
2022/06/28 02:48:17;;;;;;;4.73;4.33;;;18.30;99.90;;;;;;5045345;28;20393;-82
2022/06/28 02:51:04;;;;;;;3.90;3.60;;;18.20;99.90;;;;;;5059496;28;20413;-82
2022/06/28 02:53:51;;;;;;;6.13;4.40;;;18.40;99.90;;;;;;5073490;28;20441;-82
2022/06/28 02:56:37;;;;;;;5.53;4.10;;;18.40;99.90;;;;;;5072387;28;20442;-82
2022/06/28 02:59:23;;;;;;;5.00;4.60;;;18.30;99.90;;;;;;5010556;28;1367070;-82
2022/06/28 03:02:09;;;;;;;4.97;4.57;;;18.60;99.90;;;;;;5073091;28;20172;-82
2022/06/28 03:04:55;;;;;;;4.40;3.97;;;18.70;99.90;;;;;;5074496;28;20421;-79
2022/06/28 03:07:41;;;;;;;4.10;3.80;;;18.80;99.90;;;;;;5075465;28;20408;-81
2022/06/28 03:10:26;;;;;;;5.27;4.77;;;18.80;99.90;;;;;;5074773;28;20394;-82
2022/06/28 03:13:11;;;;;;;5.17;4.77;;;18.90;99.90;;;;;;5074855;28;20398;-82
2022/06/28 03:15:57;;;;;;;5.67;4.80;;;18.70;99.90;;;;;;5058638;28;20433;-80
2022/06/28 03:18:43;;;;;;;4.37;4.07;;;18.70;99.90;;;;;;5057676;28;20378;-81
2022/06/28 03:21:28;;;;;;;4.83;4.43;;;18.90;99.90;;;;;;5011995;28;20434;-81
2022/06/28 03:24:13;;;;;;;4.13;3.83;;;18.60;99.90;;;;;;4998063;28;20400;-81
2022/06/28 03:26:58;;;;;;;5.30;4.80;;;18.70;99.90;;;;;;5013054;28;20396;-82
2022/06/28 03:29:43;;;;;;;4.87;4.57;;;19.00;99.90;;;;;;4984168;28;20404;-81
2022/06/28 03:32:28;;;;;;;3.90;3.40;;;19.10;99.90;;;;;;5012585;28;20526;-80
2022/06/28 03:35:13;;;;;;;5.37;4.00;;;19.20;99.90;;;;;;5011550;28;20579;-81
2022/06/28 03:37:58;;;;;;;4.00;3.60;;;19.20;99.90;;;;;;5012334;28;20409;-81
2022/06/28 03:40:43;;;;;;;4.43;4.13;;;19.20;99.90;;;;;;5016601;28;20494;-80
2022/06/28 03:43:28;;;;;;;4.73;4.20;;;19.30;99.90;;;;;;5004574;28;20413;-81
2022/06/28 03:46:33;;;;;;;4.77;4.37;;;19.30;99.90;;;;;;5003190;28;20444;-81
2022/06/28 03:49:19;;;;;;;4.20;3.90;;;19.30;99.90;;;;;;4985046;28;20425;-81
2022/06/28 03:52:04;;;;;;;5.93;4.30;;;19.30;99.90;;;;;;4988861;28;20546;-82
2022/06/28 03:54:50;;;;;;;6.53;4.80;;;19.30;99.90;;;;;;5000471;28;20466;-79
2022/06/28 03:57:35;;;;;;;4.10;3.77;;;19.20;99.90;;;;;;4993561;28;20414;-81
2022/06/28 04:00:22;;;;;;;4.70;3.87;;;19.20;99.90;;;;;;5016945;28;20524;-81
2022/06/28 04:03:07;;;;;;;4.43;3.97;;;19.20;99.90;;;;;;5032891;28;20451;-82
2022/06/28 04:05:53;;;;;;;4.07;3.77;;;19.10;99.90;;;;;;5032522;28;20414;-82
2022/06/28 04:08:38;;;;;;;4.37;3.30;;;19.10;99.90;;;;;;5032478;28;20391;-82
2022/06/28 04:11:23;;;;;;;4.83;3.73;;;19.00;99.90;;;;;;5032036;28;20549;-80
2022/06/28 04:14:13;;;;;;;4.27;3.87;;;18.90;99.90;;;;;;5031961;28;20485;-81
2022/06/28 04:16:59;;;;;;;4.50;4.10;;;18.90;99.90;;;;;;5027206;28;20453;-80
2022/06/28 04:19:44;;;;;;;6.23;4.27;;;18.90;99.90;;;;;;5012494;28;20423;-82
2022/06/28 04:22:29;;;;;;;4.10;3.80;;;19.00;99.90;;;;;;4987933;28;20462;-82
2022/06/28 04:25:14;;;;;;;4.60;4.20;;;19.10;99.90;;;;;;4993165;28;20487;-81
2022/06/28 04:27:59;;;;;;;3.87;3.57;;;19.10;99.90;;;;;;4993184;28;20471;-81
2022/06/28 04:30:44;;;;;;;3.83;3.53;;;19.10;99.90;;;;;;4992805;28;20462;-81
2022/06/28 04:33:29;;;;;;;6.83;3.97;;;19.10;99.90;;;;;;4992365;28;20449;-81
2022/06/28 04:36:14;;;;;;;6.53;4.27;;;19.10;99.90;;;;;;4990267;28;20397;-81
2022/06/28 04:38:59;;;;;;;5.00;3.90;;;19.10;99.90;;;;;;4998291;28;20406;-82
2022/06/28 04:41:44;;;;;;;5.60;3.70;;;19.00;99.90;;;;;;5051324;28;20431;-81
2022/06/28 04:44:29;;;;;;;4.47;3.80;;;18.90;99.90;;;;;;5051275;28;20393;-82
2022/06/28 04:47:14;;;;;;;7.00;5.40;;;19.00;99.90;;;;;;5051318;28;20391;-81
2022/06/28 04:49:59;;;;;;;9.90;3.83;;;19.00;99.90;;;;;;5050958;28;20418;-81
2022/06/28 04:52:44;;;;;;;4.10;3.80;;;19.20;99.90;;;;;;5051106;28;20514;-82
2022/06/28 04:55:28;;;;;;;5.33;4.37;;;19.30;99.90;;;;;;5052710;28;20490;-82
2022/06/28 04:58:13;;;;;;;4.53;4.10;;;19.30;99.90;;;;;;5050530;28;20416;-81
2022/06/28 05:00:58;;;;;;;4.43;4.03;;;19.40;99.90;;;;;;5051235;28;20258;-82
2022/06/28 05:03:43;;;;;;;4.80;4.13;;;19.40;99.90;;;;;;5069180;28;20498;-81
2022/06/28 05:06:27;;;;;;;10.67;3.70;;;19.40;99.90;;;;;;5070234;28;20497;-82
2022/06/28 05:09:12;;;;;;;4.37;3.77;;;19.30;99.90;;;;;;5071610;28;20472;-82
2022/06/28 05:11:56;;;;;;;4.30;4.00;;;19.40;99.90;;;;;;5071049;28;20393;-82
2022/06/28 05:14:41;;;;;;;5.40;4.90;;;19.30;99.90;;;;;;5072465;28;20518;-81
2022/06/28 05:17:26;;;;;;;8.80;4.23;;;19.40;99.90;;;;;;5073861;28;20406;-81
2022/06/28 05:20:11;;;;;;;4.33;4.03;;;19.40;99.90;;;;;;5072483;28;20437;-83
2022/06/28 05:22:57;;;;;;;4.10;3.80;;;19.40;99.90;;;;;;5069573;28;20488;-81
2022/06/28 05:25:43;;;;;;;7.63;4.57;;;19.40;99.90;;;;;;5058406;28;20462;-81
2022/06/28 05:28:27;;;;;;;5.03;4.13;;;19.60;99.90;;;;;;5059646;28;20430;-79
2022/06/28 05:31:12;;;;;;;5.43;4.30;;;19.70;99.90;;;;;;5081478;28;20423;-82
2022/06/28 05:33:57;;;;;;;4.57;4.00;;;19.80;99.90;;;;;;5074051;28;20469;-80
2022/06/28 05:36:41;;;;;;;5.50;4.27;;;19.80;99.90;;;;;;5071868;28;20465;-80
2022/06/28 05:39:26;;;;;;;6.43;4.00;;;19.80;99.90;;;;;;5073242;28;20427;-80
2022/06/28 05:42:12;;;;;;;3.77;3.47;;;19.90;99.90;;;;;;5072559;28;20429;-79
2022/06/28 05:44:56;;;;;;;5.50;4.00;;;19.80;99.90;;;;;;5062225;28;20430;-80
2022/06/28 05:47:41;;;;;;;4.57;4.17;;;19.70;99.90;;;;;;5072191;28;20476;-82
2022/06/28 05:50:26;;;;;;;4.47;4.17;;;19.50;99.90;;;;;;5064885;28;20434;-79
2022/06/28 05:53:10;;;;;;;8.20;4.73;;;19.20;99.90;;;;;;5057614;28;20441;-80
2022/06/28 05:55:56;;;;;;;4.30;3.90;;;19.50;99.90;;;;;;5063095;28;20468;-80
2022/06/28 05:58:42;;;;;;;4.07;3.67;;;19.60;99.90;;;;;;5082107;28;20572;-80
2022/06/28 06:01:27;;;;;;;5.33;4.83;;;19.70;99.90;;;;;;5071835;28;20526;-83
2022/06/28 06:04:11;;;;;;;13.80;5.13;;;19.90;99.90;;;;;;5064303;28;20464;-83
2022/06/28 06:06:56;;;;;;;4.53;4.13;;;19.90;99.90;;;;;;5062650;28;20880;-82
2022/06/28 06:09:42;;;;;;;5.77;5.17;;;20.00;99.90;;;;;;5049171;28;20458;-84
2022/06/28 06:12:27;;;;;;;4.37;3.97;;;20.10;99.90;;;;;;5042044;28;20437;-83
2022/06/28 06:15:12;;;;;;;5.27;4.30;;;20.10;99.90;;;;;;5058942;28;20465;-82
2022/06/28 06:17:56;;;;;;;8.97;4.13;;;20.10;99.90;;;;;;5066239;28;20420;-83
2022/06/28 06:20:41;;;;;;;4.83;4.43;;;20.10;99.90;;;;;;5052328;28;20893;-84
2022/06/28 06:23:26;;;;;;;4.80;3.47;;;20.10;99.90;;;;;;5052083;28;20480;-82
2022/06/28 06:26:11;;;;;;;6.23;4.37;;;20.10;99.90;;;;;;5063431;28;20438;-82
2022/06/28 06:28:56;;;;;;;4.90;4.13;;;20.10;99.90;;;;;;5052628;28;20436;-82
2022/06/28 06:31:41;;;;;;;4.30;3.97;;;20.30;99.90;;;;;;5061464;28;20437;-82
2022/06/28 06:34:25;;;;;;;6.73;4.13;;;20.00;99.90;;;;;;5044651;28;20454;-83
2022/06/28 06:37:10;;;;;;;4.73;4.33;;;19.50;99.90;;;;;;5046818;28;20516;-84
2022/06/28 06:39:57;;;;;;;5.20;4.47;;;19.60;99.90;;;;;;5060362;28;20441;-84
2022/06/28 06:42:42;;;;;;;4.43;4.03;;;19.20;99.90;;;;;;5055930;28;20560;-83
2022/06/28 06:45:27;;;;;;;5.00;4.60;;;19.10;99.90;;;;;;5048265;28;20839;-80
2022/06/28 06:48:12;;;;;;;9.50;4.70;;;19.40;99.90;;;;;;5046232;28;20461;-82
2022/06/28 06:50:57;;;;;;;4.43;3.97;;;19.80;99.90;;;;;;5057979;28;20544;-81
2022/06/28 06:53:42;;;;;;;4.70;4.30;;;19.90;99.90;;;;;;5055815;28;20511;-81
2022/06/28 06:56:27;;;;;;;4.70;4.07;;;20.20;99.90;;;;;;5059511;28;20510;-81
2022/06/28 06:59:14;;;;;;;6.00;4.30;;;20.10;99.90;;;;;;5062707;28;20496;-82
2022/06/28 07:01:58;;;;;;;3.63;3.33;;;20.40;99.90;;;;;;5047136;28;20457;-83
2022/06/28 07:04:43;;;;;;;4.70;3.60;;;20.50;99.90;;;;;;5063683;28;20506;-84
2022/06/28 07:07:27;;;;;;;5.07;3.60;;;20.60;99.90;;;;;;5060678;28;20477;-84
2022/06/28 07:10:12;;;;;;;4.57;3.70;;;20.80;99.90;;;;;;5064995;28;20425;-81
2022/06/28 07:12:57;;;;;;;3.70;3.40;;;20.80;99.90;;;;;;5052988;28;20421;-83
2022/06/28 07:15:41;;;;;;;4.67;4.27;;;20.90;99.90;;;;;;5052426;28;20446;-83
2022/06/28 07:18:26;;;;;;;6.90;3.53;;;21.00;99.90;;;;;;5063343;28;20446;-81
2022/06/28 07:21:11;;;;;;;5.73;3.60;;;21.00;99.90;;;;;;5070832;28;20624;-80
2022/06/28 07:23:56;;;;;;;3.20;3.00;;;21.00;99.90;;;;;;5068417;28;20437;-84
2022/06/28 07:26:41;;;;;;;3.47;3.20;;;21.00;99.90;;;;;;5064438;28;20476;-82
2022/06/28 07:29:26;;;;;;;7.53;3.30;;;21.00;99.90;;;;;;5065241;28;20442;-80
2022/06/28 07:32:11;;;;;;;3.57;3.27;;;21.00;99.90;;;;;;5047962;28;20460;-79
2022/06/28 07:34:56;;;;;;;3.80;3.00;;;21.10;99.90;;;;;;5055236;28;20511;-83
2022/06/28 07:37:42;;;;;;;4.33;3.73;;;20.80;99.90;;;;;;5040599;28;20546;-79
2022/06/28 07:40:27;;;;;;;3.57;3.03;;;20.70;99.90;;;;;;5048546;28;20429;-82
2022/06/28 07:43:11;;;;;;;3.53;3.23;;;21.00;99.90;;;;;;5068238;28;20442;-82
2022/06/28 07:45:56;;;;;;;3.60;3.30;;;21.10;99.90;;;;;;5062772;28;20452;-81
2022/06/28 07:48:41;;;;;;;3.20;3.00;;;21.20;99.90;;;;;;5047588;28;20544;-80
2022/06/28 07:54:25;;;;;;;3.40;2.33;;;21.30;99.90;;;;;;5038876;28;20477;-84
2022/06/28 07:57:10;;;;;;;3.10;2.90;;;21.50;99.90;;;;;;5042495;28;20457;-81
2022/06/28 07:59:55;;;;;;;3.40;3.10;;;21.60;99.90;;;;;;5031145;28;20472;-82
2022/06/28 08:02:40;;;;;;;3.40;2.90;;;21.50;99.90;;;;;;5034205;28;20532;-83
2022/06/28 08:05:25;;;;;;;3.00;2.80;;;21.50;99.90;;;;;;5047965;28;20429;-82
2022/06/28 08:08:11;;;;;;;3.57;3.03;;;21.60;99.90;;;;;;5037344;28;20421;-84
2022/06/28 08:10:56;;;;;;;3.20;2.40;;;21.60;99.90;;;;;;5047359;28;20457;-84
2022/06/28 08:13:41;;;;;;;2.70;2.40;;;21.70;99.90;;;;;;5044287;28;21108;-84
2022/06/28 08:16:26;;;;;;;4.83;2.40;;;21.80;99.90;;;;;;5039356;28;20499;-86
2022/06/28 08:19:14;;;;;;;2.80;2.60;;;22.00;99.90;;;;;;5046114;28;21019;-84
2022/06/28 08:22:00;;;;;;;6.77;2.57;;;21.90;99.90;;;;;;5022733;28;20753;-86
2022/06/28 08:24:46;;;;;;;2.97;2.10;;;22.00;99.90;;;;;;5017387;28;20456;-82
2022/06/28 08:27:31;;;;;;;3.40;2.30;;;22.40;99.90;;;;;;5024133;28;20480;-82
2022/06/28 08:30:16;;;;;;;2.40;2.20;;;22.40;99.90;;;;;;5038103;28;20490;-83
2022/06/28 08:33:02;;;;;;;2.40;2.00;;;22.40;99.90;;;;;;5051386;28;20442;-82
2022/06/28 08:35:47;;;;;;;2.53;2.33;;;21.80;99.90;;;;;;5048395;28;20480;-84
2022/06/28 08:38:32;;;;;;;2.20;2.00;;;22.20;99.90;;;;;;5051738;28;20444;-84
2022/06/28 08:41:17;;;;;;;3.40;2.30;;;22.40;99.90;;;;;;5046058;28;20460;-83
2022/06/28 08:44:02;;;;;;;2.40;2.20;;;22.20;99.90;;;;;;5053768;28;20851;-83
2022/06/28 08:46:52;;;;;;;3.10;2.10;;;22.50;99.90;;;;;;5036769;28;20427;-85
2022/06/28 08:49:55;;;;;;;2.60;2.40;;;22.60;99.90;;;;;;5057357;28;20442;-84
2022/06/28 08:52:42;;;;;;;12.30;2.60;;;22.70;99.90;;;;;;5049341;28;20454;-83
2022/06/28 08:55:33;;;;;;;2.30;2.13;;;22.90;99.90;;;;;;4977122;28;20467;-84
2022/06/28 08:58:19;;;;;;;2.17;2.07;;;22.70;99.90;;;;;;4987504;28;20525;-83
2022/06/28 09:01:04;;;;;;;2.07;1.87;;;22.90;99.90;;;;;;4992017;28;20480;-84
2022/06/28 09:03:52;;;;;;;2.07;1.97;;;22.90;99.90;;;;;;4978186;28;20423;-82
2022/06/28 09:06:37;;;;;;;2.00;1.90;;;23.10;99.90;;;;;;4985791;28;20519;-83
2022/06/28 09:09:22;;;;;;;9.10;2.70;;;23.30;99.90;;;;;;4981253;28;20444;-82
2022/06/28 09:12:07;;;;;;;3.17;2.03;;;23.20;99.90;;;;;;4991377;28;20428;-84
2022/06/28 09:14:52;;;;;;;2.60;2.23;;;23.40;99.90;;;;;;4991513;28;20499;-83
2022/06/28 09:17:37;;;;;;;2.17;1.97;;;23.60;99.90;;;;;;4975773;28;20516;-85
2022/06/28 09:20:37;;;;;;;2.10;2.00;;;23.60;99.90;;;;;;4989572;28;20435;-85
2022/06/28 09:23:26;;;;;;;4.23;1.70;;;23.20;99.90;;;;;;4978733;28;20468;-83
2022/06/28 09:26:17;;;;;;;1.60;1.50;;;23.70;99.90;;;;;;4983444;28;20560;-85
2022/06/28 09:29:13;;;;;;;1.90;1.70;;;24.00;99.90;;;;;;5029533;28;20574;-84
2022/06/28 09:31:57;;;;;;;2.50;2.30;;;23.90;99.90;;;;;;5035059;28;20588;-84
2022/06/28 09:35:03;;;;;;;2.10;1.60;;;23.90;99.90;;;;;;5037070;28;20449;-85
2022/06/28 09:37:52;;;;;;;1.97;1.87;;;24.00;99.90;;;;;;5030405;28;20473;-85
2022/06/28 09:40:37;;;;;;;3.00;2.80;;;23.80;99.90;;;;;;5017046;28;20426;-83
2022/06/28 09:43:29;;;;;;;2.00;1.80;;;24.10;99.90;;;;;;5011355;28;20433;-81
2022/06/28 09:46:14;;;;;;;2.00;1.70;;;23.40;99.90;;;;;;5026043;28;20438;-82
2022/06/28 09:49:01;;;;;;;2.80;1.80;;;23.70;99.90;;;;;;5013202;28;20485;-84
2022/06/28 09:51:47;;;;;;;1.70;1.60;;;23.80;99.90;;;;;;5028513;28;20571;-82
2022/06/28 09:54:35;;;;;;;2.27;1.83;;;23.70;99.90;;;;;;5018207;28;20863;-82
2022/06/28 09:57:24;;;;;;;3.80;1.80;;;24.40;99.90;;;;;;5030050;28;20525;-84
2022/06/28 10:00:09;;;;;;;2.00;1.90;;;24.50;99.90;;;;;;5024210;28;20504;-83
2022/06/28 10:02:56;;;;;;;1.60;1.50;;;24.50;99.90;;;;;;5028863;28;20414;-85
2022/06/28 10:05:41;;;;;;;1.80;1.70;;;24.80;99.90;;;;;;5010882;28;20497;-85
2022/06/28 10:08:26;;;;;;;4.10;1.83;;;24.90;99.90;;;;;;5027094;28;20431;-82
2022/06/28 10:11:11;;;;;;;2.17;1.97;;;25.20;99.10;;;;;;5008217;28;20418;-83
2022/06/28 10:17:23;;;;;;;1.80;1.70;;;24.70;98.80;;;;;;4973169;28;20549;-86
2022/06/28 10:20:15;;;;;;;3.37;2.20;;;25.10;97.00;;;;;;4982067;28;20432;-84
2022/06/28 10:23:30;;;;;;;2.07;1.70;;;25.00;98.50;;;;;;4982355;28;20435;-86
2022/06/28 10:26:20;;;;;;;2.13;1.87;;;25.60;97.90;;;;;;4968777;28;21284;-84
2022/06/28 10:29:09;;;;;;;1.73;1.63;;;25.70;93.40;;;;;;4965686;28;20454;-85
2022/06/28 10:32:00;;;;;;;1.80;1.70;;;25.80;95.00;;;;;;4975166;28;20566;-85
2022/06/28 10:34:52;;;;;;;2.30;1.67;;;25.70;94.20;;;;;;4920741;29;20595;-83
2022/06/28 10:38:10;;;;;;;1.80;1.60;;;25.80;93.30;;;;;;4898866;29;20439;-82
2022/06/28 10:40:55;;;;;;;1.70;1.60;;;26.10;93.90;;;;;;4943000;28;20511;-82
2022/06/28 10:43:48;;;;;;;1.67;1.57;;;26.20;91.30;;;;;;4939063;28;20527;-83
2022/06/28 10:46:33;;;;;;;3.30;1.70;;;26.40;92.10;;;;;;4944083;28;20507;-83
2022/06/28 10:49:18;;;;;;;1.77;1.60;;;26.10;92.70;;;;;;4947126;28;20934;-83
2022/06/28 10:52:14;;;;;;;1.77;1.67;;;25.90;93.00;;;;;;4940116;28;20434;-84
2022/06/28 10:55:19;;;;;;;2.40;1.50;;;25.70;92.10;;;;;;4952257;28;20476;-85
2022/06/28 10:58:07;;;;;;;3.90;2.00;;;25.10;91.30;;;;;;4958382;28;20557;-85
2022/06/28 11:00:53;;;;;;;4.40;1.60;;;25.70;92.50;;;;;;4971866;28;20489;-85
2022/06/28 11:04:10;;;;;;;1.70;1.60;;;25.80;85.50;;;;;;4970161;28;20505;-85
2022/06/28 11:07:00;;;;;;;2.30;1.80;;;25.90;88.70;;;;;;5013617;28;20434;-86
2022/06/28 11:10:03;;;;;;;1.57;1.23;;;25.60;86.00;;;;;;5008124;28;20467;-84
2022/06/28 11:12:49;;;;;;;3.33;1.60;;;26.30;85.00;;;;;;5011994;28;20480;-82
2022/06/28 11:15:36;;;;;;;1.60;1.50;;;26.70;79.40;;;;;;4989552;28;20462;-83
2022/06/28 11:18:23;;;;;;;1.60;1.47;;;26.80;79.00;;;;;;4976556;28;20455;-84
2022/06/28 11:21:08;;;;;;;2.83;1.90;;;27.10;75.20;;;;;;4991018;28;20482;-84
2022/06/28 11:23:53;;;;;;;4.60;2.00;;;27.20;71.20;;;;;;4987978;28;20495;-82
2022/06/28 11:29:34;;;;;;;4.20;1.40;;;27.00;77.50;;;;;;4963610;28;20435;-84
2022/06/28 11:32:22;;;;;;;1.40;1.30;;;27.20;74.60;;;;;;4992229;28;20881;-81
2022/06/28 11:35:10;;;;;;;3.83;2.53;;;27.40;68.00;;;;;;4979209;28;20496;-82
2022/06/28 11:38:03;;;;;;;2.60;1.77;;;27.50;72.20;;;;;;4967916;28;20429;-84
2022/06/28 11:40:50;;;;;;;1.50;1.40;;;27.10;67.50;;;;;;4928919;29;20446;-85
2022/06/28 11:43:37;;;;;;;2.70;1.40;;;27.60;67.50;;;;;;4934182;28;20472;-82
2022/06/28 11:46:22;;;;;;;1.67;1.57;;;27.60;66.40;;;;;;4952611;29;20525;-83
2022/06/28 11:49:06;;;;;;;1.40;1.30;;;27.70;69.50;;;;;;4933127;28;21900;-82
2022/06/28 11:51:52;;;;;;;1.40;1.30;;;27.90;64.70;;;;;;4970306;28;20536;-85
2022/06/28 11:54:36;;;;;;;1.50;1.33;;;28.20;62.60;;;;;;4957098;28;20560;-84
2022/06/28 11:57:21;;;;;;;3.57;1.73;;;28.40;64.10;;;;;;4971868;28;20508;-84
2022/06/28 12:00:07;;;;;;;4.73;1.47;;;28.60;64.50;;;;;;4976324;28;20468;-85
2022/06/28 12:02:55;;;;;;;2.00;1.90;;;28.70;59.00;;;;;;4972448;28;20619;-86
2022/06/28 12:05:40;;;;;;;1.90;1.50;;;28.80;60.90;;;;;;4965514;28;20488;-84
2022/06/28 12:08:55;;;;;;;1.73;1.47;;;29.10;60.90;;;;;;4960472;28;20484;-85
2022/06/28 12:11:44;;;;;;;1.40;1.30;;;29.10;58.00;;;;;;5013466;28;20469;-82
2022/06/28 12:14:32;;;;;;;3.20;1.87;;;28.50;61.30;;;;;;5040674;28;20490;-83
2022/06/28 12:17:16;;;;;;;1.53;1.40;;;29.00;60.40;;;;;;5016097;28;20439;-84
2022/06/28 12:20:09;;;;;;;1.50;1.40;;;29.10;66.40;;;;;;5014032;28;20982;-83
2022/06/28 12:22:56;;;;;;;3.20;2.07;;;29.30;62.40;;;;;;5005327;28;20514;-86
2022/06/28 12:25:40;;;;;;;3.03;1.87;;;28.70;58.90;;;;;;4988699;28;20430;-83
2022/06/28 12:28:25;;;;;;;2.53;1.63;;;28.10;57.50;;;;;;5005783;28;20446;-82
2022/06/28 12:31:10;;;;;;;2.27;1.37;;;27.90;57.90;;;;;;5013934;28;20490;-85
2022/06/28 12:33:54;;;;;;;1.43;1.33;;;28.20;56.90;;;;;;4999824;28;20559;-84
2022/06/28 12:36:39;;;;;;;1.93;1.63;;;28.90;61.20;;;;;;5009874;28;20475;-83
2022/06/28 12:39:24;;;;;;;2.20;1.60;;;28.80;56.90;;;;;;5009638;28;20196;-82
2022/06/28 12:42:12;;;;;;;1.60;1.50;;;27.10;59.00;;;;;;5023329;28;20206;-83
2022/06/28 12:45:00;;;;;;;1.80;1.70;;;27.20;61.80;;;;;;4956234;28;20462;-82
2022/06/28 12:47:45;;;;;;;2.07;1.60;;;27.90;63.60;;;;;;4980343;28;20448;-81
2022/06/28 12:50:31;;;;;;;2.13;1.93;;;27.50;58.40;;;;;;4982204;28;22554;-82
2022/06/28 12:53:15;;;;;;;1.60;1.50;;;28.20;70.40;;;;;;4969891;28;20485;-81
2022/06/28 12:56:00;;;;;;;1.40;1.30;;;28.10;62.50;;;;;;4975505;28;20547;-83
2022/06/28 12:58:46;;;;;;;1.70;1.60;;;28.20;63.10;;;;;;4967686;28;20459;-82
2022/06/28 13:01:30;;;;;;;1.93;1.50;;;28.10;58.70;;;;;;4969365;28;20456;-83
2022/06/28 13:04:17;;;;;;;1.70;1.60;;;27.60;57.60;;;;;;4946914;28;20465;-80
2022/06/28 13:07:02;;;;;;;1.63;1.53;;;28.50;59.60;;;;;;4956818;28;20434;-83
2022/06/28 13:09:47;;;;;;;1.77;1.67;;;27.80;59.20;;;;;;4955634;28;20483;-83
2022/06/28 13:12:31;;;;;;;1.70;1.60;;;27.80;62.20;;;;;;4953511;28;20425;-82
2022/06/28 13:15:16;;;;;;;1.93;1.83;;;28.30;58.70;;;;;;4958889;29;20461;-82
2022/06/28 13:18:00;;;;;;;4.60;1.57;;;29.00;56.90;;;;;;4969714;28;20473;-83
2022/06/28 13:20:45;;;;;;;1.63;1.53;;;27.90;59.00;;;;;;4967985;28;20440;-80
2022/06/28 13:23:30;;;;;;;1.70;1.60;;;29.00;59.30;;;;;;5024146;28;20441;-83
2022/06/28 13:26:15;;;;;;;1.97;1.77;;;29.80;57.80;;;;;;5049533;28;20194;-82
2022/06/28 13:29:00;;;;;;;3.08;1.52;;;30.00;56.60;;;;;;5031831;28;20291;-80
2022/06/28 13:31:46;;;;;;;1.95;1.48;;;29.90;54.30;;;;;;5035628;28;20182;-81
2022/06/28 13:34:30;;;;;;;1.80;1.70;;;30.90;55.90;;;;;;5050096;28;20239;-81
2022/06/28 13:37:15;;;;;;;6.05;1.95;;;31.50;55.60;;;;;;5036824;28;20186;-82
2022/06/28 13:40:00;;;;;;;2.47;1.60;;;30.90;55.00;;;;;;5033559;28;20186;-81
2022/06/28 13:42:45;;;;;;;2.63;1.65;;;30.80;54.60;;;;;;5044508;28;20197;-83
2022/06/28 13:45:30;;;;;;;1.60;1.50;;;30.10;53.70;;;;;;5024739;28;20307;-83
2022/06/28 13:48:14;;;;;;;1.95;1.85;;;29.60;55.20;;;;;;5038099;28;20207;-83
2022/06/28 13:51:00;;;;;;;1.77;1.67;;;30.10;54.70;;;;;;5044449;28;20199;-81
2022/06/28 13:53:44;;;;;;;2.00;1.90;;;29.40;52.70;;;;;;5046740;28;20233;-82
2022/06/28 13:56:31;;;;;;;2.00;1.90;;;28.50;53.20;;;;;;5030728;28;20207;-83
2022/06/28 13:59:15;;;;;;;2.15;1.90;;;29.20;54.40;;;;;;5033291;28;20199;-81
2022/06/28 14:02:19;;;;;;;2.53;2.38;;;28.60;54.90;;;;;;5042114;28;20211;-80
2022/06/28 14:05:04;;;;;;;3.07;2.03;;;28.80;54.90;;;;;;5008779;28;20235;-83
2022/06/28 14:07:48;;;;;;;2.20;1.97;;;29.20;54.30;;;;;;5016276;28;20211;-82
2022/06/28 14:10:34;;;;;;;2.38;2.20;;;29.30;53.70;;;;;;5009619;28;20207;-82
2022/06/28 14:13:23;;;;;;;1.60;1.50;;;29.00;56.10;;;;;;5014661;28;20235;-82
2022/06/28 14:16:08;;;;;;;1.70;1.60;;;29.60;56.80;;;;;;4974016;28;20207;-84
2022/06/28 14:18:53;;;;;;;3.83;2.50;;;30.10;55.60;;;;;;5002543;28;20191;-84
2022/06/28 14:21:37;;;;;;;2.95;2.63;;;30.90;52.40;;;;;;4997922;28;20263;-84
2022/06/28 14:24:23;;;;;;;2.53;2.08;;;29.80;52.90;;;;;;5001020;28;20227;-83
2022/06/28 14:27:08;;;;;;;8.65;2.22;;;31.00;52.20;;;;;;5008329;28;20171;-81
2022/06/28 14:29:53;;;;;;;2.22;2.03;;;29.40;53.20;;;;;;4991690;28;20200;-82
2022/06/28 14:32:38;;;;;;;2.27;2.17;;;29.00;56.10;;;;;;5006440;28;20267;-82
2022/06/28 14:35:23;;;;;;;2.30;2.20;;;28.20;55.70;;;;;;5022203;28;20183;-83
2022/06/28 14:38:08;;;;;;;3.83;2.40;;;28.80;58.30;;;;;;5031146;28;20457;-80
2022/06/28 14:40:53;;;;;;;2.00;1.90;;;29.10;56.50;;;;;;5045745;28;20503;-82